EBLG/LGG METAR and TAF weather

Enter ICAO airport designator
Station Type Date Time Source
EBLG METAR 2020/06/02 16:20 UTC NOAA

EBLG 021620Z 32006KT 260V010 CAVOK 27/05 Q1014 NOSIG


Station Type Date Time Source
EBLG Decoded METAR 2020/06/02 16:20 UTC NOAA

Bierset, Belgium (EBLG) 50-39N 005-27E 178M
Jun 02, 2020 - 12:20 PM EDT / 2020.06.02 1620 UTC
Wind: from the NW (320 degrees) at 7 MPH (6 KT) (direction variable):0
Visibility: greater than 7 mile(s):0
Temperature: 80 F (27 C)
Dew Point: 41 F (5 C)
Relative Humidity: 24%
Pressure (altimeter): 29.94 in. Hg (1014 hPa)
ob: EBLG 021620Z 32006KT 260V010 CAVOK 27/05 Q1014 NOSIG
cycle: 16

Station Type Date Time Source
EBLG TAF 2020/06/02 12:27 UTC NOAA

TAF EBLG 021114Z 0212/0318 33007KT CAVOK

Example: see airport list